PWSweather.com
Personal Weather Stations
Station Observations
DW1039
Liberty & Fairfield Townships, Hamilton, OH 45011

Liberty & Fairfield TownshipsHamilton, OH 45011

Lat: 39.3933, Lon: -84.477

Elevation: 780

Station Type: Davis Vantage Pro2 (Daytime Fan Aspirated)

http://www.lfweathercenter.com/

Latest ConditionsUpdated 7:10:10 AM EDT Monday, Apr 24, 2017
Currently Today's Max Today's Min Today's Average
Temperature 45.2°F7.3°C 53.2°F11.8°C 44.4°F6.9°C 48.8°F9.3°C
Dew Point 38.8°F3.8°C 41.1°F5.1°C 38.3°F3.5°C 39.8°F4.3°C
Winds 2.0 mph NE3.2 kmh NE 7.0 mph NNE11.3 kmh NNE - 2.2 mph 3.5 kmh
Wind Gusts 7.0 mph11.3 kmh 10.0 mph16.1 kmh - -
Humidity 78% 81% 59% 71%
Pressure 29.95 in1014.2 mb 29.99 in1015.6 mb 29.94 in1013.9 mb -
Hour Temp Dew Point Humidity Winds Wind Gusts Pressure Precip Precip Rate Daily Precip Total
07:10 AM 45.2°F7.3°C 38.8°F3.8°C 78% 2.0 mph NE3.2 kmh NE 7.0 mph11.3 kmh 29.95 in1014.2 mb 0.00 in0.0 mm 0.00 in0.0 mm 0.00 in0.0 mm
07:00 AM 45.2°F7.3°C 38.8°F3.8°C 78% 4.0 mph NE6.4 kmh NE 8.0 mph12.9 kmh 29.95 in1014.2 mb 0.00 in0.0 mm 0.00 in0.0 mm 0.00 in0.0 mm
06:50 AM 45.5°F7.5°C 39.1°F3.9°C 78% 7.0 mph NNE11.3 kmh NNE 7.0 mph11.3 kmh 29.95 in1014.2 mb 0.00 in0.0 mm 0.00 in0.0 mm 0.00 in0.0 mm
06:40 AM 45.7°F7.6°C 39.2°F4.0°C 78% 3.0 mph NE4.8 kmh NE 6.0 mph9.7 kmh 29.95 in1014.2 mb 0.00 in0.0 mm 0.00 in0.0 mm 0.00 in0.0 mm
06:30 AM 45.8°F7.7°C 39.7°F4.3°C 79% 3.0 mph N4.8 kmh N 10.0 mph16.1 kmh 29.95 in1014.2 mb 0.00 in0.0 mm 0.00 in0.0 mm 0.00 in0.0 mm
06:20 AM 45.5°F7.5°C 39.4°F4.1°C 79% 5.0 mph N8.0 kmh N 8.0 mph12.9 kmh 29.94 in1013.9 mb 0.00 in0.0 mm 0.00 in0.0 mm 0.00 in0.0 mm
06:10 AM 45.7°F7.6°C 39.6°F4.2°C 79% Calm Calm 6.0 mph9.7 kmh 29.94 in1013.9 mb 0.00 in0.0 mm 0.00 in0.0 mm 0.00 in0.0 mm
06:00 AM 45.7°F7.6°C 39.6°F4.2°C 79% Calm Calm 7.0 mph11.3 kmh 29.94 in1013.9 mb 0.00 in0.0 mm 0.00 in0.0 mm 0.00 in0.0 mm
05:50 AM 45.5°F7.5°C 39.7°F4.3°C 80% 4.0 mph N6.4 kmh N 9.0 mph14.5 kmh 29.94 in1013.9 mb 0.00 in0.0 mm 0.00 in0.0 mm 0.00 in0.0 mm
05:40 AM 45.6°F7.6°C 39.5°F4.2°C 79% 5.0 mph N8.0 kmh N 6.0 mph9.7 kmh 29.95 in1014.2 mb 0.00 in0.0 mm 0.00 in0.0 mm 0.00 in0.0 mm
05:30 AM 45.7°F7.6°C 39.6°F4.2°C 79% 2.0 mph N3.2 kmh N 5.0 mph8.0 kmh 29.95 in1014.2 mb 0.00 in0.0 mm 0.00 in0.0 mm 0.00 in0.0 mm
05:20 AM 45.6°F7.6°C 40.1°F4.5°C 81% 3.0 mph N4.8 kmh N 6.0 mph9.7 kmh 29.95 in1014.2 mb 0.00 in0.0 mm 0.00 in0.0 mm 0.00 in0.0 mm
05:10 AM 44.8°F7.1°C 39.3°F4.1°C 81% Calm Calm 5.0 mph8.0 kmh 29.94 in1013.9 mb 0.00 in0.0 mm 0.00 in0.0 mm 0.00 in0.0 mm
05:00 AM 44.4°F6.9°C 38.3°F3.5°C 79% 5.0 mph NNE8.0 kmh NNE 5.0 mph8.0 kmh 29.94 in1013.9 mb 0.00 in0.0 mm 0.00 in0.0 mm 0.00 in0.0 mm
04:50 AM 45.1°F7.3°C 38.7°F3.7°C 78% 1.0 mph NNE1.6 kmh NNE 2.0 mph3.2 kmh 29.95 in1014.2 mb 0.00 in0.0 mm 0.00 in0.0 mm 0.00 in0.0 mm
04:40 AM 46.2°F7.9°C 39.1°F3.9°C 76% Calm Calm -- 29.95 in1014.2 mb 0.00 in0.0 mm 0.00 in0.0 mm 0.00 in0.0 mm
04:30 AM 47.2°F8.4°C 39.7°F4.3°C 75% Calm Calm -- 29.96 in1014.6 mb 0.00 in0.0 mm 0.00 in0.0 mm 0.00 in0.0 mm
04:20 AM 48.1°F8.9°C 40.2°F4.6°C 74% Calm Calm -- 29.95 in1014.2 mb 0.00 in0.0 mm 0.00 in0.0 mm 0.00 in0.0 mm
04:10 AM 48.5°F9.2°C 40.3°F4.6°C 73% Calm Calm 2.0 mph3.2 kmh 29.95 in1014.2 mb 0.00 in0.0 mm 0.00 in0.0 mm 0.00 in0.0 mm
04:00 AM 49.0°F9.4°C 40.4°F4.7°C 72% Calm Calm 1.0 mph1.6 kmh 29.95 in1014.2 mb 0.00 in0.0 mm 0.00 in0.0 mm 0.00 in0.0 mm
03:50 AM 49.5°F9.7°C 40.5°F4.7°C 71% 2.0 mph NE3.2 kmh NE 6.0 mph9.7 kmh 29.95 in1014.2 mb 0.00 in0.0 mm 0.00 in0.0 mm 0.00 in0.0 mm
03:40 AM 50.0°F10.0°C 40.6°F4.8°C 70% Calm Calm 6.0 mph9.7 kmh 29.95 in1014.2 mb 0.00 in0.0 mm 0.00 in0.0 mm 0.00 in0.0 mm
03:30 AM 50.2°F10.1°C 40.8°F4.9°C 70% 3.0 mph NNE4.8 kmh NNE 7.0 mph11.3 kmh 29.95 in1014.2 mb 0.00 in0.0 mm 0.00 in0.0 mm 0.00 in0.0 mm
03:20 AM 50.5°F10.3°C 41.1°F5.1°C 70% 5.0 mph NE8.0 kmh NE 5.0 mph8.0 kmh 29.94 in1013.9 mb 0.00 in0.0 mm 0.00 in0.0 mm 0.00 in0.0 mm
03:10 AM 50.5°F10.3°C 41.1°F5.1°C 70% 3.0 mph NE4.8 kmh NE 10.0 mph16.1 kmh 29.94 in1013.9 mb 0.00 in0.0 mm 0.00 in0.0 mm 0.00 in0.0 mm
03:00 AM 50.3°F10.2°C 40.9°F4.9°C 70% 2.0 mph NE3.2 kmh NE 9.0 mph14.5 kmh 29.94 in1013.9 mb 0.00 in0.0 mm 0.00 in0.0 mm 0.00 in0.0 mm
02:50 AM 50.2°F10.1°C 40.4°F4.7°C 69% 3.0 mph NNE4.8 kmh NNE 7.0 mph11.3 kmh 29.95 in1014.2 mb 0.00 in0.0 mm 0.00 in0.0 mm 0.00 in0.0 mm
02:40 AM 50.0°F10.0°C 40.2°F4.6°C 69% 3.0 mph ENE4.8 kmh ENE 6.0 mph9.7 kmh 29.96 in1014.6 mb 0.00 in0.0 mm 0.00 in0.0 mm 0.00 in0.0 mm
02:30 AM 50.4°F10.2°C 39.9°F4.4°C 67% 1.0 mph NE1.6 kmh NE 4.0 mph6.4 kmh 29.97 in1014.9 mb 0.00 in0.0 mm 0.00 in0.0 mm 0.00 in0.0 mm
02:20 AM 50.9°F10.5°C 39.6°F4.2°C 65% Calm Calm 2.0 mph3.2 kmh 29.97 in1014.9 mb 0.00 in0.0 mm 0.00 in0.0 mm 0.00 in0.0 mm
02:10 AM 51.5°F10.8°C 39.7°F4.3°C 64% Calm Calm 5.0 mph8.0 kmh 29.97 in1014.9 mb 0.00 in0.0 mm 0.00 in0.0 mm 0.00 in0.0 mm
02:00 AM 51.9°F11.1°C 39.7°F4.3°C 63% 6.0 mph NNE9.7 kmh NNE 6.0 mph9.7 kmh 29.98 in1015.2 mb 0.00 in0.0 mm 0.00 in0.0 mm 0.00 in0.0 mm
01:50 AM 52.4°F11.3°C 39.4°F4.1°C 61% 1.0 mph NE1.6 kmh NE 6.0 mph9.7 kmh 29.98 in1015.2 mb 0.00 in0.0 mm 0.00 in0.0 mm 0.00 in0.0 mm
01:40 AM 52.5°F11.4°C 39.0°F3.9°C 60% 3.0 mph N4.8 kmh N 10.0 mph16.1 kmh 29.97 in1014.9 mb 0.00 in0.0 mm 0.00 in0.0 mm 0.00 in0.0 mm
01:30 AM 52.8°F11.6°C 38.9°F3.8°C 59% 4.0 mph NE6.4 kmh NE 7.0 mph11.3 kmh 29.97 in1014.9 mb 0.00 in0.0 mm 0.00 in0.0 mm 0.00 in0.0 mm
01:20 AM 53.2°F11.8°C 39.3°F4.1°C 59% 7.0 mph NNE11.3 kmh NNE 7.0 mph11.3 kmh 29.97 in1014.9 mb 0.00 in0.0 mm 0.00 in0.0 mm 0.00 in0.0 mm
01:10 AM 53.0°F11.7°C 39.5°F4.2°C 60% 3.0 mph NE4.8 kmh NE 10.0 mph16.1 kmh 29.97 in1014.9 mb 0.00 in0.0 mm 0.00 in0.0 mm 0.00 in0.0 mm
12:50 AM 51.8°F11.0°C 40.0°F4.4°C 64% 3.0 mph NE4.8 kmh NE 7.0 mph11.3 kmh 29.98 in1015.2 mb 0.00 in0.0 mm 0.00 in0.0 mm 0.00 in0.0 mm
12:40 AM 51.3°F10.7°C 40.3°F4.6°C 66% Calm Calm 4.0 mph6.4 kmh 29.98 in1015.2 mb 0.00 in0.0 mm 0.00 in0.0 mm 0.00 in0.0 mm
12:30 AM 50.8°F10.4°C 40.3°F4.6°C 67% 1.0 mph NNE1.6 kmh NNE 6.0 mph9.7 kmh 29.99 in1015.6 mb 0.00 in0.0 mm 0.00 in0.0 mm 0.00 in0.0 mm
12:20 AM 50.9°F10.5°C 40.4°F4.7°C 67% Calm Calm 3.0 mph4.8 kmh 29.99 in1015.6 mb 0.00 in0.0 mm 0.00 in0.0 mm 0.00 in0.0 mm
12:10 AM 51.4°F10.8°C 40.0°F4.4°C 65% Calm Calm -- 29.99 in1015.6 mb 0.00 in0.0 mm 0.00 in0.0 mm 0.00 in0.0 mm
12:00 AM 52.2°F11.2°C 40.0°F4.4°C 63% Calm Calm 1.0 mph1.6 kmh 29.99 in1015.6 mb 0.00 in0.0 mm 0.00 in0.0 mm 0.00 in0.0 mm